Chocowinity, North Carolina
Current Conditions -  °F | °C
As of 1:55 PM on Tuesday 27 Jan 2015 (Local Time) from KOCW Reporting Station
Overcast Overcast  
Wind Chill: 28°   Ceiling: 2300
Heat Index: 35°   Visibility: 10mi
Dew Point: 28°   Wind: 10mph
Humidity: 74%   Direction: 340°NNW
Pressure: 29.79"   Gusts: 21mph
Location:  35.51°N, 77.1°W
Report Text: KOCW 271855Z AUTO 34009G18KT 10SM OVC023 02/M02 A2979 RMK AO2 T00191022
Loading
Personal Weather Stations






























Interactive Weather Map New forecast layout! Learn more

10-Day Weather Forecast

Advertisements
Track Severe Weather on mobile